sensor_id;sensor_type;location;lat;lon;timestamp;P1;durP1;ratioP1;P2;durP2;ratioP2
30062;SDS011;16889;67.864;24.990;2022-10-31T00:00:18;8.48;;;1.02;;
30062;SDS011;16889;67.864;24.990;2022-10-31T00:05:04;8.57;;;1.15;;
30062;SDS011;16889;67.864;24.990;2022-10-31T00:09:51;7.63;;;1.10;;
30062;SDS011;16889;67.864;24.990;2022-10-31T00:14:37;4.57;;;1.05;;
30062;SDS011;16889;67.864;24.990;2022-10-31T00:19:23;3.58;;;1.10;;
30062;SDS011;16889;67.864;24.990;2022-10-31T00:24:09;10.00;;;1.05;;
30062;SDS011;16889;67.864;24.990;2022-10-31T00:28:56;9.40;;;1.35;;
30062;SDS011;16889;67.864;24.990;2022-10-31T00:33:43;8.85;;;1.20;;
30062;SDS011;16889;67.864;24.990;2022-10-31T00:38:29;18.23;;;1.88;;
30062;SDS011;16889;67.864;24.990;2022-10-31T00:43:16;11.07;;;1.33;;
30062;SDS011;16889;67.864;24.990;2022-10-31T00:48:02;10.05;;;1.27;;
30062;SDS011;16889;67.864;24.990;2022-10-31T00:52:48;12.52;;;1.30;;
30062;SDS011;16889;67.864;24.990;2022-10-31T00:57:34;8.45;;;1.20;;
30062;SDS011;16889;67.864;24.990;2022-10-31T01:02:20;14.30;;;1.40;;
30062;SDS011;16889;67.864;24.990;2022-10-31T01:07:06;12.70;;;1.15;;
30062;SDS011;16889;67.864;24.990;2022-10-31T01:11:52;10.80;;;1.60;;
30062;SDS011;16889;67.864;24.990;2022-10-31T01:16:38;8.85;;;1.02;;
30062;SDS011;16889;67.864;24.990;2022-10-31T01:21:26;11.00;;;1.27;;
30062;SDS011;16889;67.864;24.990;2022-10-31T01:26:23;11.20;;;1.27;;
30062;SDS011;16889;67.864;24.990;2022-10-31T01:31:14;14.32;;;1.42;;
30062;SDS011;16889;67.864;24.990;2022-10-31T01:36:01;9.67;;;1.20;;
30062;SDS011;16889;67.864;24.990;2022-10-31T01:40:56;26.88;;;1.90;;
30062;SDS011;16889;67.864;24.990;2022-10-31T01:45:43;12.38;;;1.33;;
30062;SDS011;16889;67.864;24.990;2022-10-31T01:50:35;13.45;;;1.33;;
30062;SDS011;16889;67.864;24.990;2022-10-31T02:00:13;11.35;;;1.20;;
30062;SDS011;16889;67.864;24.990;2022-10-31T02:05:02;4.72;;;0.88;;
30062;SDS011;16889;67.864;24.990;2022-10-31T02:09:51;10.70;;;1.30;;
30062;SDS011;16889;67.864;24.990;2022-10-31T02:14:40;8.68;;;0.98;;
30062;SDS011;16889;67.864;24.990;2022-10-31T02:24:40;8.70;;;1.15;;
30062;SDS011;16889;67.864;24.990;2022-10-31T02:35:27;6.43;;;1.08;;
30062;SDS011;16889;67.864;24.990;2022-10-31T02:40:33;8.98;;;1.05;;
30062;SDS011;16889;67.864;24.990;2022-10-31T02:45:45;5.25;;;0.95;;
30062;SDS011;16889;67.864;24.990;2022-10-31T02:50:38;7.18;;;1.00;;
30062;SDS011;16889;67.864;24.990;2022-10-31T03:00:13;7.53;;;1.15;;
30062;SDS011;16889;67.864;24.990;2022-10-31T03:19:50;7.72;;;0.93;;
30062;SDS011;16889;67.864;24.990;2022-10-31T03:24:40;6.40;;;1.02;;
30062;SDS011;16889;67.864;24.990;2022-10-31T03:29:28;5.82;;;1.10;;
30062;SDS011;16889;67.864;24.990;2022-10-31T03:34:19;4.47;;;0.80;;
30062;SDS011;16889;67.864;24.990;2022-10-31T03:39:06;3.03;;;1.00;;
30062;SDS011;16889;67.864;24.990;2022-10-31T03:43:59;8.68;;;1.20;;
30062;SDS011;16889;67.864;24.990;2022-10-31T03:48:48;3.35;;;0.90;;
30062;SDS011;16889;67.864;24.990;2022-10-31T03:53:39;7.50;;;1.17;;
30062;SDS011;16889;67.864;24.990;2022-10-31T03:59:17;6.28;;;1.00;;
30062;SDS011;16889;67.864;24.990;2022-10-31T04:03:43;7.43;;;0.90;;
30062;SDS011;16889;67.864;24.990;2022-10-31T04:08:31;3.58;;;1.08;;
30062;SDS011;16889;67.864;24.990;2022-10-31T04:13:31;8.10;;;1.00;;
30062;SDS011;16889;67.864;24.990;2022-10-31T04:18:21;6.80;;;1.00;;
30062;SDS011;16889;67.864;24.990;2022-10-31T04:23:14;7.45;;;1.10;;
30062;SDS011;16889;67.864;24.990;2022-10-31T04:28:08;17.65;;;1.33;;
30062;SDS011;16889;67.864;24.990;2022-10-31T04:32:54;12.85;;;1.77;;
30062;SDS011;16889;67.864;24.990;2022-10-31T04:37:40;7.43;;;1.27;;
30062;SDS011;16889;67.864;24.990;2022-10-31T04:42:28;3.20;;;0.88;;
30062;SDS011;16889;67.864;24.990;2022-10-31T04:47:15;4.05;;;1.08;;
30062;SDS011;16889;67.864;24.990;2022-10-31T04:52:01;4.72;;;0.90;;
30062;SDS011;16889;67.864;24.990;2022-10-31T04:56:47;5.95;;;1.08;;
30062;SDS011;16889;67.864;24.990;2022-10-31T05:01:33;4.13;;;0.95;;
30062;SDS011;16889;67.864;24.990;2022-10-31T05:06:19;3.97;;;1.00;;
30062;SDS011;16889;67.864;24.990;2022-10-31T05:11:05;2.70;;;0.82;;
30062;SDS011;16889;67.864;24.990;2022-10-31T05:15:51;3.47;;;1.00;;
30062;SDS011;16889;67.864;24.990;2022-10-31T05:20:37;7.78;;;1.10;;
30062;SDS011;16889;67.864;24.990;2022-10-31T05:25:24;5.35;;;1.00;;
30062;SDS011;16889;67.864;24.990;2022-10-31T05:30:13;7.18;;;1.63;;
30062;SDS011;16889;67.864;24.990;2022-10-31T05:35:02;8.35;;;1.27;;
30062;SDS011;16889;67.864;24.990;2022-10-31T05:39:48;4.20;;;0.88;;
30062;SDS011;16889;67.864;24.990;2022-10-31T05:44:34;2.90;;;0.73;;
30062;SDS011;16889;67.864;24.990;2022-10-31T05:49:20;5.03;;;0.80;;
30062;SDS011;16889;67.864;24.990;2022-10-31T05:54:06;2.53;;;1.05;;
30062;SDS011;16889;67.864;24.990;2022-10-31T05:58:52;2.83;;;0.80;;
30062;SDS011;16889;67.864;24.990;2022-10-31T06:03:38;5.55;;;0.70;;
30062;SDS011;16889;67.864;24.990;2022-10-31T06:08:24;3.65;;;0.90;;
30062;SDS011;16889;67.864;24.990;2022-10-31T06:13:10;4.00;;;0.75;;
30062;SDS011;16889;67.864;24.990;2022-10-31T06:17:59;4.72;;;0.90;;
30062;SDS011;16889;67.864;24.990;2022-10-31T06:22:49;5.07;;;0.82;;
30062;SDS011;16889;67.864;24.990;2022-10-31T06:27:35;3.75;;;1.00;;
30062;SDS011;16889;67.864;24.990;2022-10-31T06:32:21;8.73;;;1.15;;
30062;SDS011;16889;67.864;24.990;2022-10-31T06:37:08;1.60;;;0.75;;
30062;SDS011;16889;67.864;24.990;2022-10-31T06:41:55;1.73;;;0.75;;
30062;SDS011;16889;67.864;24.990;2022-10-31T06:46:41;12.70;;;1.23;;
30062;SDS011;16889;67.864;24.990;2022-10-31T06:51:27;4.72;;;1.10;;
30062;SDS011;16889;67.864;24.990;2022-10-31T06:56:13;9.35;;;0.85;;
30062;SDS011;16889;67.864;24.990;2022-10-31T07:01:00;9.18;;;1.20;;
30062;SDS011;16889;67.864;24.990;2022-10-31T07:05:46;6.47;;;1.02;;
30062;SDS011;16889;67.864;24.990;2022-10-31T07:10:33;1.73;;;0.90;;
30062;SDS011;16889;67.864;24.990;2022-10-31T07:15:20;3.00;;;0.90;;
30062;SDS011;16889;67.864;24.990;2022-10-31T07:20:06;3.15;;;0.80;;
30062;SDS011;16889;67.864;24.990;2022-10-31T07:24:53;3.63;;;0.85;;
30062;SDS011;16889;67.864;24.990;2022-10-31T07:29:39;5.28;;;0.80;;
30062;SDS011;16889;67.864;24.990;2022-10-31T07:34:25;3.65;;;0.88;;
30062;SDS011;16889;67.864;24.990;2022-10-31T07:39:10;8.68;;;1.38;;
30062;SDS011;16889;67.864;24.990;2022-10-31T07:43:57;6.38;;;0.85;;
30062;SDS011;16889;67.864;24.990;2022-10-31T07:48:43;6.82;;;1.13;;
30062;SDS011;16889;67.864;24.990;2022-10-31T07:53:29;6.45;;;1.35;;
30062;SDS011;16889;67.864;24.990;2022-10-31T07:58:15;2.42;;;0.90;;
30062;SDS011;16889;67.864;24.990;2022-10-31T08:07:49;6.70;;;0.90;;
30062;SDS011;16889;67.864;24.990;2022-10-31T08:12:35;4.93;;;1.00;;
30062;SDS011;16889;67.864;24.990;2022-10-31T08:17:21;4.78;;;0.90;;
30062;SDS011;16889;67.864;24.990;2022-10-31T08:22:07;3.17;;;0.90;;
30062;SDS011;16889;67.864;24.990;2022-10-31T08:26:53;4.32;;;0.90;;
30062;SDS011;16889;67.864;24.990;2022-10-31T08:31:39;1.40;;;0.80;;
30062;SDS011;16889;67.864;24.990;2022-10-31T08:36:26;9.98;;;0.98;;
30062;SDS011;16889;67.864;24.990;2022-10-31T08:41:13;10.10;;;1.00;;
30062;SDS011;16889;67.864;24.990;2022-10-31T08:45:59;4.90;;;0.80;;
30062;SDS011;16889;67.864;24.990;2022-10-31T08:50:46;7.25;;;1.00;;
30062;SDS011;16889;67.864;24.990;2022-10-31T08:55:33;5.85;;;1.00;;
30062;SDS011;16889;67.864;24.990;2022-10-31T09:00:20;6.00;;;0.90;;
30062;SDS011;16889;67.864;24.990;2022-10-31T09:05:06;7.50;;;1.08;;
30062;SDS011;16889;67.864;24.990;2022-10-31T09:09:53;8.17;;;1.10;;
30062;SDS011;16889;67.864;24.990;2022-10-31T09:14:40;6.63;;;1.25;;
30062;SDS011;16889;67.864;24.990;2022-10-31T09:19:26;3.60;;;0.80;;
30062;SDS011;16889;67.864;24.990;2022-10-31T09:24:12;7.40;;;1.00;;
30062;SDS011;16889;67.864;24.990;2022-10-31T09:28:58;5.60;;;1.10;;
30062;SDS011;16889;67.864;24.990;2022-10-31T09:33:47;5.70;;;1.20;;
30062;SDS011;16889;67.864;24.990;2022-10-31T09:38:32;12.65;;;1.30;;
30062;SDS011;16889;67.864;24.990;2022-10-31T09:53:22;7.38;;;1.27;;
30062;SDS011;16889;67.864;24.990;2022-10-31T09:58:19;12.35;;;2.13;;
30062;SDS011;16889;67.864;24.990;2022-10-31T10:08:17;6.32;;;1.40;;
30062;SDS011;16889;67.864;24.990;2022-10-31T10:13:18;13.75;;;5.63;;
30062;SDS011;16889;67.864;24.990;2022-10-31T10:23:35;11.02;;;1.40;;
30062;SDS011;16889;67.864;24.990;2022-10-31T10:28:38;11.52;;;3.50;;
30062;SDS011;16889;67.864;24.990;2022-10-31T10:38:25;9.48;;;1.60;;
30062;SDS011;16889;67.864;24.990;2022-10-31T10:43:33;40.80;;;14.38;;
30062;SDS011;16889;67.864;24.990;2022-10-31T10:53:19;16.08;;;4.57;;
30062;SDS011;16889;67.864;24.990;2022-10-31T10:58:44;12.38;;;1.90;;
30062;SDS011;16889;67.864;24.990;2022-10-31T11:03:30;7.57;;;1.77;;
30062;SDS011;16889;67.864;24.990;2022-10-31T11:18:02;10.40;;;1.30;;
30062;SDS011;16889;67.864;24.990;2022-10-31T11:22:49;10.60;;;1.57;;
30062;SDS011;16889;67.864;24.990;2022-10-31T11:32:45;16.70;;;1.80;;
30062;SDS011;16889;67.864;24.990;2022-10-31T11:37:39;10.40;;;1.52;;
30062;SDS011;16889;67.864;24.990;2022-10-31T11:42:28;9.95;;;1.55;;
30062;SDS011;16889;67.864;24.990;2022-10-31T11:47:29;8.73;;;1.23;;
30062;SDS011;16889;67.864;24.990;2022-10-31T11:52:24;7.30;;;1.00;;
30062;SDS011;16889;67.864;24.990;2022-10-31T11:57:32;7.20;;;1.50;;
30062;SDS011;16889;67.864;24.990;2022-10-31T12:02:27;15.80;;;1.50;;
30062;SDS011;16889;67.864;24.990;2022-10-31T12:07:13;16.38;;;1.48;;
30062;SDS011;16889;67.864;24.990;2022-10-31T12:21:59;8.20;;;1.40;;
30062;SDS011;16889;67.864;24.990;2022-10-31T12:37:10;12.65;;;1.50;;
30062;SDS011;16889;67.864;24.990;2022-10-31T12:42:02;16.00;;;1.50;;
30062;SDS011;16889;67.864;24.990;2022-10-31T12:47:11;13.93;;;1.70;;
30062;SDS011;16889;67.864;24.990;2022-10-31T12:57:22;15.52;;;1.88;;
30062;SDS011;16889;67.864;24.990;2022-10-31T13:02:23;12.52;;;1.58;;
30062;SDS011;16889;67.864;24.990;2022-10-31T13:07:15;19.95;;;1.88;;
30062;SDS011;16889;67.864;24.990;2022-10-31T13:12:11;8.50;;;1.10;;
30062;SDS011;16889;67.864;24.990;2022-10-31T13:17:01;9.73;;;1.17;;
30062;SDS011;16889;67.864;24.990;2022-10-31T13:22:11;13.13;;;1.20;;
30062;SDS011;16889;67.864;24.990;2022-10-31T13:26:58;14.82;;;1.73;;
30062;SDS011;16889;67.864;24.990;2022-10-31T13:31:46;12.60;;;1.58;;
30062;SDS011;16889;67.864;24.990;2022-10-31T13:36:43;5.10;;;1.20;;
30062;SDS011;16889;67.864;24.990;2022-10-31T13:41:41;11.68;;;1.60;;
30062;SDS011;16889;67.864;24.990;2022-10-31T13:51:25;6.43;;;1.30;;
30062;SDS011;16889;67.864;24.990;2022-10-31T14:01:16;11.13;;;1.60;;
30062;SDS011;16889;67.864;24.990;2022-10-31T14:06:05;5.65;;;1.52;;
30062;SDS011;16889;67.864;24.990;2022-10-31T14:10:54;6.85;;;1.30;;
30062;SDS011;16889;67.864;24.990;2022-10-31T14:20:45;13.45;;;1.70;;
30062;SDS011;16889;67.864;24.990;2022-10-31T14:25:33;10.17;;;1.60;;
30062;SDS011;16889;67.864;24.990;2022-10-31T14:30:24;11.02;;;1.25;;
30062;SDS011;16889;67.864;24.990;2022-10-31T14:35:15;10.10;;;1.10;;
30062;SDS011;16889;67.864;24.990;2022-10-31T14:45:05;8.90;;;1.33;;
30062;SDS011;16889;67.864;24.990;2022-10-31T14:50:08;12.93;;;1.38;;
30062;SDS011;16889;67.864;24.990;2022-10-31T14:55:17;10.77;;;1.50;;
30062;SDS011;16889;67.864;24.990;2022-10-31T15:00:06;15.80;;;1.75;;
30062;SDS011;16889;67.864;24.990;2022-10-31T15:04:58;16.80;;;1.50;;
30062;SDS011;16889;67.864;24.990;2022-10-31T15:09:44;10.02;;;1.75;;
30062;SDS011;16889;67.864;24.990;2022-10-31T15:14:39;15.23;;;1.35;;
30062;SDS011;16889;67.864;24.990;2022-10-31T15:19:27;16.85;;;2.10;;
30062;SDS011;16889;67.864;24.990;2022-10-31T15:24:16;16.90;;;1.88;;
30062;SDS011;16889;67.864;24.990;2022-10-31T15:29:04;10.05;;;1.50;;
30062;SDS011;16889;67.864;24.990;2022-10-31T15:33:58;12.55;;;1.70;;
30062;SDS011;16889;67.864;24.990;2022-10-31T15:38:49;9.20;;;1.70;;
30062;SDS011;16889;67.864;24.990;2022-10-31T15:43:36;20.33;;;1.80;;
30062;SDS011;16889;67.864;24.990;2022-10-31T15:48:25;10.77;;;1.73;;
30062;SDS011;16889;67.864;24.990;2022-10-31T15:53:54;8.93;;;1.17;;
30062;SDS011;16889;67.864;24.990;2022-10-31T15:58:23;15.35;;;1.35;;
30062;SDS011;16889;67.864;24.990;2022-10-31T16:08:04;21.20;;;2.63;;
30062;SDS011;16889;67.864;24.990;2022-10-31T16:13:07;8.60;;;2.70;;
30062;SDS011;16889;67.864;24.990;2022-10-31T16:17:54;12.23;;;2.83;;
30062;SDS011;16889;67.864;24.990;2022-10-31T16:22:40;7.30;;;2.40;;
30062;SDS011;16889;67.864;24.990;2022-10-31T16:27:27;9.60;;;2.42;;
30062;SDS011;16889;67.864;24.990;2022-10-31T16:32:29;23.08;;;3.10;;
30062;SDS011;16889;67.864;24.990;2022-10-31T16:37:18;10.63;;;2.70;;
30062;SDS011;16889;67.864;24.990;2022-10-31T16:42:04;19.25;;;3.40;;
30062;SDS011;16889;67.864;24.990;2022-10-31T16:47:14;10.77;;;3.25;;
30062;SDS011;16889;67.864;24.990;2022-10-31T16:51:59;22.60;;;4.15;;
30062;SDS011;16889;67.864;24.990;2022-10-31T16:56:45;9.85;;;3.72;;
30062;SDS011;16889;67.864;24.990;2022-10-31T17:01:31;9.77;;;3.42;;
30062;SDS011;16889;67.864;24.990;2022-10-31T17:06:20;13.10;;;3.30;;
30062;SDS011;16889;67.864;24.990;2022-10-31T17:11:07;6.43;;;3.53;;
30062;SDS011;16889;67.864;24.990;2022-10-31T17:16:00;10.98;;;3.75;;
30062;SDS011;16889;67.864;24.990;2022-10-31T17:20:47;8.57;;;4.05;;
30062;SDS011;16889;67.864;24.990;2022-10-31T17:25:33;17.52;;;4.28;;
30062;SDS011;16889;67.864;24.990;2022-10-31T17:30:20;8.55;;;3.95;;
30062;SDS011;16889;67.864;24.990;2022-10-31T17:35:07;8.67;;;4.27;;
30062;SDS011;16889;67.864;24.990;2022-10-31T17:39:54;10.75;;;3.65;;
30062;SDS011;16889;67.864;24.990;2022-10-31T17:44:40;12.35;;;4.00;;
30062;SDS011;16889;67.864;24.990;2022-10-31T17:49:26;9.23;;;4.07;;
30062;SDS011;16889;67.864;24.990;2022-10-31T17:54:12;18.00;;;5.18;;
30062;SDS011;16889;67.864;24.990;2022-10-31T17:59:02;11.32;;;4.38;;
30062;SDS011;16889;67.864;24.990;2022-10-31T18:03:48;14.95;;;4.70;;
30062;SDS011;16889;67.864;24.990;2022-10-31T18:08:35;10.68;;;4.65;;
30062;SDS011;16889;67.864;24.990;2022-10-31T18:13:22;10.48;;;4.20;;
30062;SDS011;16889;67.864;24.990;2022-10-31T18:18:09;11.05;;;4.43;;
30062;SDS011;16889;67.864;24.990;2022-10-31T18:22:55;14.98;;;4.43;;
30062;SDS011;16889;67.864;24.990;2022-10-31T18:27:41;12.88;;;4.07;;
30062;SDS011;16889;67.864;24.990;2022-10-31T18:32:26;8.95;;;4.35;;
30062;SDS011;16889;67.864;24.990;2022-10-31T18:37:12;11.05;;;4.22;;
30062;SDS011;16889;67.864;24.990;2022-10-31T18:41:58;7.43;;;3.72;;
30062;SDS011;16889;67.864;24.990;2022-10-31T18:46:44;6.88;;;3.53;;
30062;SDS011;16889;67.864;24.990;2022-10-31T18:51:30;6.85;;;3.28;;
30062;SDS011;16889;67.864;24.990;2022-10-31T18:56:17;8.77;;;3.10;;
30062;SDS011;16889;67.864;24.990;2022-10-31T19:01:06;7.57;;;3.33;;
30062;SDS011;16889;67.864;24.990;2022-10-31T19:05:56;7.53;;;3.15;;
30062;SDS011;16889;67.864;24.990;2022-10-31T19:10:42;4.38;;;2.67;;
30062;SDS011;16889;67.864;24.990;2022-10-31T19:15:28;4.63;;;2.72;;
30062;SDS011;16889;67.864;24.990;2022-10-31T19:20:14;9.38;;;3.72;;
30062;SDS011;16889;67.864;24.990;2022-10-31T19:25:00;7.50;;;2.90;;
30062;SDS011;16889;67.864;24.990;2022-10-31T19:29:46;8.02;;;3.28;;
30062;SDS011;16889;67.864;24.990;2022-10-31T19:34:32;7.15;;;2.63;;
30062;SDS011;16889;67.864;24.990;2022-10-31T19:39:18;5.85;;;2.90;;
30062;SDS011;16889;67.864;24.990;2022-10-31T19:44:04;5.15;;;2.72;;
30062;SDS011;16889;67.864;24.990;2022-10-31T19:48:50;10.43;;;3.13;;
30062;SDS011;16889;67.864;24.990;2022-10-31T19:53:37;7.60;;;3.00;;
30062;SDS011;16889;67.864;24.990;2022-10-31T19:58:24;7.53;;;3.08;;
30062;SDS011;16889;67.864;24.990;2022-10-31T20:03:10;7.13;;;2.60;;
30062;SDS011;16889;67.864;24.990;2022-10-31T20:07:56;7.20;;;2.55;;
30062;SDS011;16889;67.864;24.990;2022-10-31T20:12:42;8.38;;;2.97;;
30062;SDS011;16889;67.864;24.990;2022-10-31T20:17:28;6.15;;;2.80;;
30062;SDS011;16889;67.864;24.990;2022-10-31T20:22:14;5.30;;;2.60;;
30062;SDS011;16889;67.864;24.990;2022-10-31T20:27:00;9.93;;;2.60;;
30062;SDS011;16889;67.864;24.990;2022-10-31T20:31:48;8.32;;;3.08;;
30062;SDS011;16889;67.864;24.990;2022-10-31T20:36:34;6.38;;;2.67;;
30062;SDS011;16889;67.864;24.990;2022-10-31T20:41:20;8.45;;;3.33;;
30062;SDS011;16889;67.864;24.990;2022-10-31T20:46:09;5.32;;;2.72;;
30062;SDS011;16889;67.864;24.990;2022-10-31T20:50:58;5.95;;;2.88;;
30062;SDS011;16889;67.864;24.990;2022-10-31T20:55:45;6.43;;;3.30;;
30062;SDS011;16889;67.864;24.990;2022-10-31T21:00:31;9.63;;;3.58;;
30062;SDS011;16889;67.864;24.990;2022-10-31T21:05:17;9.30;;;3.20;;
30062;SDS011;16889;67.864;24.990;2022-10-31T21:10:04;7.15;;;3.10;;
30062;SDS011;16889;67.864;24.990;2022-10-31T21:14:58;7.07;;;3.33;;
30062;SDS011;16889;67.864;24.990;2022-10-31T21:19:44;8.00;;;2.97;;
30062;SDS011;16889;67.864;24.990;2022-10-31T21:24:30;8.32;;;2.78;;
30062;SDS011;16889;67.864;24.990;2022-10-31T21:29:17;6.25;;;2.83;;
30062;SDS011;16889;67.864;24.990;2022-10-31T21:34:04;6.88;;;2.70;;
30062;SDS011;16889;67.864;24.990;2022-10-31T21:38:52;6.88;;;3.17;;
30062;SDS011;16889;67.864;24.990;2022-10-31T21:43:40;6.63;;;3.30;;
30062;SDS011;16889;67.864;24.990;2022-10-31T21:48:28;5.65;;;2.60;;
30062;SDS011;16889;67.864;24.990;2022-10-31T21:53:14;5.88;;;2.95;;
30062;SDS011;16889;67.864;24.990;2022-10-31T21:58:29;13.20;;;3.15;;
30062;SDS011;16889;67.864;24.990;2022-10-31T22:03:15;11.50;;;3.58;;
30062;SDS011;16889;67.864;24.990;2022-10-31T22:08:01;7.57;;;3.25;;
30062;SDS011;16889;67.864;24.990;2022-10-31T22:12:47;8.07;;;3.30;;
30062;SDS011;16889;67.864;24.990;2022-10-31T22:17:33;10.88;;;3.83;;
30062;SDS011;16889;67.864;24.990;2022-10-31T22:22:19;22.23;;;4.43;;
30062;SDS011;16889;67.864;24.990;2022-10-31T22:27:05;15.02;;;4.35;;
30062;SDS011;16889;67.864;24.990;2022-10-31T22:31:51;12.55;;;3.90;;
30062;SDS011;16889;67.864;24.990;2022-10-31T22:36:37;19.13;;;5.40;;
30062;SDS011;16889;67.864;24.990;2022-10-31T22:41:24;18.90;;;4.40;;
30062;SDS011;16889;67.864;24.990;2022-10-31T22:46:17;14.57;;;4.13;;
30062;SDS011;16889;67.864;24.990;2022-10-31T22:51:09;13.48;;;3.38;;
30062;SDS011;16889;67.864;24.990;2022-10-31T22:55:57;20.13;;;4.03;;
30062;SDS011;16889;67.864;24.990;2022-10-31T23:00:43;11.52;;;3.85;;
30062;SDS011;16889;67.864;24.990;2022-10-31T23:05:29;28.85;;;4.90;;
30062;SDS011;16889;67.864;24.990;2022-10-31T23:10:15;17.52;;;4.00;;
30062;SDS011;16889;67.864;24.990;2022-10-31T23:15:01;14.50;;;3.88;;
30062;SDS011;16889;67.864;24.990;2022-10-31T23:19:47;12.43;;;4.35;;
30062;SDS011;16889;67.864;24.990;2022-10-31T23:29:21;11.27;;;4.20;;
30062;SDS011;16889;67.864;24.990;2022-10-31T23:34:08;13.07;;;4.32;;
30062;SDS011;16889;67.864;24.990;2022-10-31T23:38:54;18.58;;;5.10;;
30062;SDS011;16889;67.864;24.990;2022-10-31T23:43:40;15.57;;;5.03;;
30062;SDS011;16889;67.864;24.990;2022-10-31T23:48:26;25.65;;;5.95;;
30062;SDS011;16889;67.864;24.990;2022-10-31T23:53:12;16.48;;;4.60;;
30062;SDS011;16889;67.864;24.990;2022-10-31T23:57:58;22.27;;;5.80;;
